Time;durP1;ratioP1;P1;durP2;ratioP2;P2;SDS_P1;SDS_P2;PMS_P1;PMS_P2;Temp;Humidity;BMP_temperature;BMP_pressure;BME280_temperature;BME280_humidity;BME280_pressure;Samples;Min_cycle;Max_cycle;Signal;HPM_P1;HPM_P2
2021/08/13 00:01:13;;;;;;;14.27;6.53;;;;;;;16.84;100.00;115205.53;5079233;28;20100;-67
2021/08/13 00:03:39;;;;;;;13.60;6.27;;;;;;;16.75;100.00;116545.88;5081753;28;20043;-67
2021/08/13 00:06:04;;;;;;;12.70;6.73;;;;;;;16.72;100.00;118577.91;5081818;28;20019;-67
2021/08/13 00:08:30;;;;;;;16.83;7.87;;;;;;;16.70;100.00;118914.66;5081064;28;20028;-67
2021/08/13 00:10:55;;;;;;;18.10;7.57;;;;;;;16.72;100.00;120618.28;5081076;28;20280;-67
2021/08/13 00:13:21;;;;;;;15.53;7.60;;;;;;;16.73;100.00;121639.41;5080392;28;20042;-67
2021/08/13 00:15:46;;;;;;;16.37;8.23;;;;;;;16.73;100.00;122660.84;5071936;28;20412;-67
2021/08/13 00:18:12;;;;;;;17.93;8.27;;;;;;;16.75;100.00;124365.38;5081645;28;20024;-67
2021/08/13 00:20:37;;;;;;;16.47;8.30;;;;;;;16.75;100.00;126067.59;5078696;28;20268;-67
2021/08/13 00:23:03;;;;;;;18.13;7.77;;;;;;;16.65;100.00;126048.03;5079633;28;20024;-67
2021/08/13 00:25:29;;;;;;;17.33;9.07;;;;;;;16.68;100.00;127415.69;5073246;28;20020;-67
2021/08/13 00:27:54;;;;;;;21.03;9.23;;;;;;;16.73;100.00;128108.00;5070946;28;20031;-67
2021/08/13 00:30:20;;;;;;;17.50;8.80;;;;;;;16.71;100.00;128444.28;5068838;28;20531;-67
2021/08/13 00:32:45;;;;;;;17.50;7.73;;;;;;;16.64;100.00;127066.31;5085611;28;20468;-67
2021/08/13 00:35:11;;;;;;;14.97;7.33;;;;;;;16.49;100.00;124651.09;5080445;28;20024;-67
2021/08/13 00:37:37;;;;;;;13.63;6.30;;;;;;;16.31;100.00;119176.53;5073085;28;20031;-67
2021/08/13 00:40:04;;;;;;;13.53;6.27;;;;;;;16.20;100.00;116098.31;5080779;28;20215;-67
2021/08/13 00:42:29;;;;;;;12.97;6.43;;;;;;;16.10;100.00;116080.31;5079779;28;20036;-67
2021/08/13 00:44:55;;;;;;;13.00;7.03;;;;;;;16.08;100.00;117433.38;5080737;28;20024;-67
2021/08/13 00:47:20;;;;;;;16.50;6.90;;;;;;;16.13;100.00;120158.34;5081505;28;20024;-67
2021/08/13 00:49:46;;;;;;;16.57;8.27;;;;;;;16.21;100.00;123573.09;5079148;28;20035;-67
2021/08/13 00:52:12;;;;;;;17.17;8.67;;;;;;;16.25;100.00;123580.56;5072673;28;20100;-67
2021/08/13 00:54:37;;;;;;;20.33;9.67;;;;;;;16.30;100.00;122572.25;5076259;28;20020;-67
2021/08/13 00:57:04;;;;;;;18.40;9.23;;;;;;;16.34;100.00;121221.09;5081206;28;20111;-67
2021/08/13 00:59:29;;;;;;;19.37;9.73;;;;;;;16.36;100.00;119526.47;5079449;28;20078;-67
2021/08/13 01:01:55;;;;;;;22.07;9.33;;;;;;;16.35;100.00;118505.53;5077772;28;20028;-67
2021/08/13 01:04:20;;;;;;;18.97;9.30;;;;;;;16.32;100.00;116123.28;5079739;28;20059;-67
2021/08/13 01:06:46;;;;;;;19.03;8.47;;;;;;;16.24;100.00;112376.22;5081101;28;20518;-67
2021/08/13 01:09:12;;;;;;;19.00;9.60;;;;;;;16.22;100.00;111695.53;5079451;28;20032;-67
2021/08/13 01:12:20;;;;;;;19.50;8.67;;;;;;;16.22;100.00;111695.53;5077342;28;20035;-67
2021/08/13 01:15:15;;;;;;;16.90;9.10;;;;;;;16.21;100.00;109322.53;5074038;28;20059;-67
2021/08/13 01:18:05;;;;;;;18.47;9.47;;;;;;;16.15;100.00;106942.03;5079261;28;20100;-67
2021/08/13 01:21:16;;;;;;;18.70;8.80;;;;;;;16.06;100.00;101516.91;5081660;28;20601;-67
2021/08/13 01:24:04;;;;;;;14.30;7.63;;;;;;;15.98;100.00;102516.19;5059699;28;20681;-67
2021/08/13 01:26:40;;;;;;;19.27;9.67;;;;;;;15.90;100.00;101152.09;5080729;28;20332;-67
2021/08/13 01:29:25;;;;;;;20.77;8.93;;;;;;;15.95;100.00;105214.41;5077805;28;20016;-67
2021/08/13 01:32:32;;;;;;;24.37;8.70;;;;;;;15.96;100.00;106568.78;5080306;28;20074;-67
2021/08/13 01:35:26;;;;;;;18.50;9.60;;;;;;;15.96;100.00;108937.03;5030623;28;20040;-67
2021/08/13 01:38:02;;;;;;;22.03;8.93;;;;;;;15.91;100.00;106221.44;5070386;28;20292;-67
2021/08/13 01:40:30;;;;;;;16.03;8.43;;;;;;;15.83;100.00;102829.22;5079905;28;20103;-67
2021/08/13 01:42:57;;;;;;;20.10;8.63;;;;;;;15.75;100.00;100451.75;5077916;28;20183;-67
2021/08/13 01:45:30;;;;;;;18.00;9.47;;;;;;;15.71;100.00;102469.38;5079304;28;20158;-67
2021/08/13 01:47:57;;;;;;;20.10;9.60;;;;;;;15.71;100.00;105172.69;5070131;28;20443;-67
2021/08/13 01:50:23;;;;;;;19.00;8.60;;;;;;;15.78;100.00;108566.81;5070789;28;20028;-67
2021/08/13 01:53:00;;;;;;;17.23;9.10;;;;;;;15.73;100.00;106190.31;5066770;28;20047;-67
2021/08/13 01:55:26;;;;;;;19.83;9.03;;;;;;;15.67;100.00;104488.78;5079677;28;20032;-67
2021/08/13 01:57:52;;;;;;;23.03;9.80;;;;;;;15.65;100.00;105499.75;5077012;28;20461;-67
2021/08/13 02:00:21;;;;;;;21.43;9.60;;;;;;;15.71;100.00;109568.63;5075252;28;20039;-67
2021/08/13 02:02:48;;;;;;;17.50;8.27;;;;;;;15.65;100.00;105499.75;5076339;28;20066;-67
2021/08/13 02:05:20;;;;;;;18.53;9.87;;;;;;;15.63;100.00;105834.06;5066343;28;20072;-67
2021/08/13 02:07:47;;;;;;;19.63;9.75;;;;;;;15.61;100.00;109549.75;5079633;28;20032;-67
2021/08/13 02:10:13;;;;;;;22.17;9.13;;;;;;;15.61;100.00;109549.75;5079651;28;20280;-67
2021/08/13 02:12:39;;;;;;;19.50;9.60;;;;;;;15.56;100.00;110216.91;5080190;28;20501;-67
2021/08/13 02:15:06;;;;;;;21.50;8.90;;;;;;;15.44;100.00;105461.50;5075707;28;20028;-67
2021/08/13 02:17:35;;;;;;;17.37;8.00;;;;;;;15.35;100.00;102069.13;5069983;28;20100;-67
2021/08/13 02:20:07;;;;;;;14.30;7.37;;;;;;;15.25;100.00;101378.56;5077848;28;20024;-66
2021/08/13 02:22:33;;;;;;;16.40;7.93;;;;;;;15.19;100.00;100693.56;5079683;28;20191;-67
2021/08/13 02:24:58;;;;;;;11.90;6.70;;;;;;;15.12;100.00;101692.22;5076735;28;20042;-66
2021/08/13 02:27:25;;;;;;;17.63;8.63;;;;;;;15.12;100.00;106080.47;5061484;28;20043;-66
2021/08/13 02:29:51;;;;;;;15.93;8.30;;;;;;;15.09;100.00;109114.53;5076851;28;20032;-66
2021/08/13 02:32:17;;;;;;;18.13;8.73;;;;;;;15.08;100.00;110803.88;5073175;28;20032;-66
2021/08/13 02:34:43;;;;;;;23.43;9.77;;;;;;;15.10;100.00;113175.53;5078686;28;20028;-66
2021/08/13 02:37:25;;;;;;;21.50;9.27;;;;;;;15.07;100.00;113846.47;5071851;28;20452;-67
2021/08/13 02:39:57;;;;;;;25.80;10.23;;;;;;;15.13;100.00;112842.03;5079225;28;20273;-67
2021/08/13 02:42:56;;;;;;;22.33;9.35;;;;;;;15.17;100.00;113526.66;5073246;28;20287;-67
2021/08/13 02:45:23;;;;;;;23.50;10.17;;;;;;;15.13;100.00;113858.22;4958336;28;20400;-67
2021/08/13 02:47:54;;;;;;;19.03;9.37;;;;;;;15.05;100.00;112489.16;4976141;28;20030;-67
2021/08/13 02:50:22;;;;;;;27.00;10.00;;;;;;;15.06;100.00;112829.41;4969763;28;20049;-67
2021/08/13 02:53:00;;;;;;;21.60;10.77;;;;;;;15.07;100.00;112830.38;4979416;28;20042;-66
2021/08/13 02:55:45;;;;;;;24.53;10.53;;;;;;;15.09;100.00;114864.88;4967279;28;20043;-66
2021/08/13 02:58:14;;;;;;;26.87;11.20;;;;;;;15.14;100.00;116907.75;4977954;28;20392;-67
2021/08/13 03:00:43;;;;;;;30.00;12.67;;;;;;;15.19;100.00;117595.44;4979241;28;20129;-67
2021/08/13 03:03:10;;;;;;;30.43;12.53;;;;;;;15.18;100.00;117254.59;4964798;28;20052;-67
2021/08/13 03:05:41;;;;;;;28.13;11.70;;;;;;;15.13;100.00;115888.59;4964439;28;20039;-67
2021/08/13 03:08:06;;;;;;;27.23;12.37;;;;;;;15.07;100.00;115200.44;4964434;28;20077;-67
2021/08/13 03:10:32;;;;;;;26.70;11.57;;;;;;;15.03;100.00;114515.53;4964338;28;20080;-67
2021/08/13 03:12:58;;;;;;;25.23;11.70;;;;;;;15.05;100.00;115196.47;4974020;28;20467;-67
2021/08/13 03:15:24;;;;;;;31.10;12.10;;;;;;;15.03;100.00;114854.00;4964616;28;20046;-67
2021/08/13 03:17:49;;;;;;;27.37;12.07;;;;;;;15.04;100.00;114855.97;4964475;28;20034;-67
2021/08/13 03:20:16;;;;;;;32.70;12.97;;;;;;;15.02;100.00;115190.53;4964252;28;20052;-67
2021/08/13 03:22:42;;;;;;;24.77;10.97;;;;;;;14.99;100.00;115184.56;5069976;28;20568;-67
2021/08/13 03:25:08;;;;;;;27.90;12.10;;;;;;;15.04;100.00;116547.91;5083988;28;20479;-67
2021/08/13 03:27:34;;;;;;;33.80;12.67;;;;;;;15.15;100.00;119958.94;5085978;28;20616;-67
2021/08/13 03:30:00;;;;;;;34.57;14.00;;;;;;;15.21;100.00;120989.78;5082777;28;20024;-67
2021/08/13 03:32:26;;;;;;;35.27;13.73;;;;;;;15.14;100.00;120636.09;5074012;28;20056;-67
2021/08/13 03:34:52;;;;;;;36.07;13.47;;;;;;;15.20;100.00;120987.69;5082451;28;20028;-67
2021/08/13 03:37:17;;;;;;;33.93;13.50;;;;;;;15.17;100.00;120641.25;5076603;28;20038;-67
2021/08/13 03:39:43;;;;;;;41.47;14.20;;;;;;;15.19;100.00;120307.31;5085919;28;20055;-67
2021/08/13 03:42:09;;;;;;;34.30;14.23;;;;;;;15.15;100.00;119280.88;5084459;28;20028;-67
2021/08/13 03:44:34;;;;;;;33.70;13.50;;;;;;;15.13;100.00;119277.78;5079187;28;20033;-67
2021/08/13 03:47:00;;;;;;;30.47;13.33;;;;;;;15.12;100.00;119274.69;5068781;28;20448;-67
2021/08/13 03:49:25;;;;;;;35.17;14.73;;;;;;;15.05;100.00;119261.38;5083685;28;20074;-67
2021/08/13 03:51:51;;;;;;;40.30;15.63;;;;;;;15.06;100.00;119941.38;5084555;28;20058;-67
2021/08/13 03:54:16;;;;;;;32.10;12.70;;;;;;;14.96;100.00;118565.19;5085224;28;20043;-67
2021/08/13 03:56:42;;;;;;;23.87;10.20;;;;;;;14.73;100.00;113779.78;5074236;28;20055;-67
2021/08/13 03:59:07;;;;;;;14.23;6.97;;;;;;;14.55;100.00;108678.16;5080408;28;20073;-67
2021/08/13 04:01:33;;;;;;;15.27;7.53;;;;;;;14.43;100.00;104607.06;5085469;28;20424;-67
2021/08/13 04:04:00;;;;;;;15.53;7.57;;;;;;;14.38;100.00;104936.09;5084879;28;20055;-67
2021/08/13 04:06:26;;;;;;;14.60;7.27;;;;;;;14.35;100.00;104929.78;5083970;28;20032;-67
2021/08/13 04:08:51;;;;;;;14.97;7.33;;;;;;;14.31;100.00;104248.31;5085128;28;20606;-67
2021/08/13 04:11:17;;;;;;;18.67;7.97;;;;;;;14.36;100.00;107292.59;5074672;28;20036;-67
2021/08/13 04:13:42;;;;;;;14.13;7.57;;;;;;;14.35;100.00;109316.69;5073108;28;20028;-67
2021/08/13 04:16:08;;;;;;;14.30;7.77;;;;;;;14.38;100.00;112023.31;5085108;28;20024;-67
2021/08/13 04:18:33;;;;;;;25.07;10.37;;;;;;;14.48;100.00;114747.16;5084783;28;20051;-67
2021/08/13 04:20:59;;;;;;;25.90;11.00;;;;;;;14.61;100.00;117141.53;5080347;28;20461;-67
2021/08/13 04:23:25;;;;;;;29.77;11.80;;;;;;;14.73;100.00;119534.44;5082720;28;20035;-67
2021/08/13 04:25:50;;;;;;;35.60;13.00;;;;;;;14.84;100.00;120234.84;5078855;28;20055;-66
2021/08/13 04:28:16;;;;;;;28.33;12.27;;;;;;;14.85;100.00;119221.31;5073302;28;20036;-66
2021/08/13 04:30:41;;;;;;;35.00;12.90;;;;;;;14.89;100.00;117196.00;5084500;28;20031;-67
2021/08/13 04:33:11;;;;;;;28.47;12.50;;;;;;;14.95;100.00;116192.25;5070518;28;20035;-67
2021/08/13 04:35:37;;;;;;;27.70;12.30;;;;;;;15.04;100.00;113502.22;5084542;28;20023;-67
2021/08/13 04:38:04;;;;;;;30.27;12.17;;;;;;;15.05;100.00;109445.00;5074998;28;20036;-66
2021/08/13 04:40:30;;;;;;;23.50;11.60;;;;;;;15.05;100.00;109445.00;5082972;28;20039;-66
2021/08/13 04:42:56;;;;;;;21.17;10.20;;;;;;;14.96;100.00;95600.94;5084400;28;20020;-66
2021/08/13 04:45:21;;;;;;;21.60;9.57;;;;;;;15.05;100.00;94605.19;5082440;28;20028;-66
2021/08/13 04:47:47;;;;;;;21.93;10.93;;;;;;;15.25;100.00;95985.63;5083451;28;20114;-67
2021/08/13 04:50:12;;;;;;;24.70;12.10;;;;;;;15.84;100.00;97767.09;5080795;28;20066;-66
2021/08/13 04:52:45;;;;;;;21.23;9.80;;;;;;;16.42;100.00;70624.31;5073872;28;20460;-66
2021/08/13 04:55:12;;;;;;;18.90;8.50;;;;;;;17.14;100.00;-12395.84;5079477;28;20043;-66
2021/08/13 04:57:38;;;;;;;16.17;8.43;;;;;;;17.69;100.00;-19625.56;5080904;28;20111;-66
2021/08/13 05:00:05;;;;;;;15.50;7.93;;;;;;;18.27;100.00;-19640.44;5080481;28;20040;-66
2021/08/13 05:02:30;;;;;;;17.87;7.80;;;;;;;18.95;100.00;-19657.88;5079620;28;20036;-67
2021/08/13 05:05:00;;;;;;;12.50;7.13;;;;;;;19.57;100.00;-19673.78;5077139;28;20655;-67
2021/08/13 05:07:28;;;;;;;14.03;7.43;;;;;;;20.22;100.00;-19690.41;5078516;28;20283;-68
2021/08/13 05:09:53;;;;;;;13.07;7.00;;;;;;;20.76;100.00;-19704.19;5070532;28;20526;-68
2021/08/13 05:12:19;;;;;;;17.23;7.37;;;;;;;20.42;100.00;-19695.63;5075594;28;20032;-67
2021/08/13 05:14:45;;;;;;;14.20;7.50;;;;;;;19.73;100.00;-19677.81;5071111;28;20024;-67
2021/08/13 05:17:11;;;;;;;14.73;7.70;;;;;;;19.32;100.00;-19667.53;5074918;28;20224;-67
2021/08/13 05:19:36;;;;;;;13.43;7.20;;;;;;;18.56;100.00;-19648.00;5080029;28;20137;-67
2021/08/13 05:22:02;;;;;;;18.93;8.47;;;;;;;17.81;100.00;-19628.69;5073907;28;20336;-67
2021/08/13 05:24:27;;;;;;;19.57;8.57;;;;;;;17.54;100.00;-19621.78;5076940;28;20095;-67
2021/08/13 05:26:53;;;;;;;19.70;9.30;;;;;;;18.23;100.00;-19639.38;5076064;28;20278;-68
2021/08/13 05:29:18;;;;;;;18.60;8.57;;;;;;;18.87;100.00;-19655.81;5079065;28;20330;-68
2021/08/13 05:31:44;;;;;;;15.53;8.20;;;;;;;19.66;100.00;-19676.13;5075731;28;20117;-68
2021/08/13 05:34:09;;;;;;;17.03;7.80;;;;;;;20.50;100.00;-19697.56;5077975;28;20412;-68
2021/08/13 05:36:35;;;;;;;15.40;6.80;;;;;;;21.23;100.00;-19716.16;5080473;28;20388;-69
2021/08/13 05:39:01;;;;;;;16.73;7.30;;;;;;;20.86;100.00;-19706.69;5080352;28;20468;-69
2021/08/13 05:41:29;;;;;;;17.40;7.45;;;;;;;21.69;100.00;-19727.97;5080051;28;20419;-69
2021/08/13 05:43:55;;;;;;;12.82;7.22;;;;;;;22.52;100.00;-19749.09;5079679;28;20040;-69
2021/08/13 05:46:20;;;;;;;16.35;8.35;;;;;;;23.05;100.00;-19762.72;5080093;28;20020;-70
2021/08/13 05:48:46;;;;;;;19.05;7.70;;;;;;;23.55;100.00;-19775.41;5079742;28;20151;-70
2021/08/13 05:51:12;;;;;;;22.15;8.40;;;;;;;24.11;100.00;-19789.50;5079674;28;20502;-70
2021/08/13 05:53:37;;;;;;;19.58;8.18;;;;;;;24.71;100.00;-19804.75;5079991;28;20039;-70
2021/08/13 05:56:03;;;;;;;18.30;7.80;;;;;;;24.30;100.00;-19794.41;5079720;28;20107;-70
2021/08/13 05:58:29;;;;;;;21.73;8.90;;;;;;;24.43;100.00;-19797.66;5079450;28;20319;-69
2021/08/13 06:00:54;;;;;;;14.32;7.50;;;;;;;24.31;100.00;-19794.69;5079642;28;20090;-70
2021/08/13 06:03:20;;;;;;;14.57;7.50;;;;;;;23.93;100.00;-19785.09;5078711;28;20081;-70
2021/08/13 06:05:45;;;;;;;15.80;8.90;;;;;;;23.45;100.00;-19772.81;5079826;28;20495;-70
2021/08/13 06:08:11;;;;;;;16.67;9.13;;;;;;;23.06;100.00;-19762.84;5079578;28;20038;-70
2021/08/13 06:10:36;;;;;;;15.70;9.02;;;;;;;23.29;100.00;-19768.81;5079583;28;20488;-69
2021/08/13 06:13:02;;;;;;;15.15;8.50;;;;;;;24.23;100.00;-19792.75;5079696;28;20108;-69
2021/08/13 06:15:27;;;;;;;15.70;8.93;;;;;;;24.40;100.00;-19797.00;5079415;28;20035;-70
2021/08/13 06:17:53;;;;;;;15.38;8.27;;;;;;;24.65;100.00;-19803.22;5079716;28;20231;-70
2021/08/13 06:20:20;;;;;;;14.63;8.18;;;;;;;25.54;100.00;-19825.94;5079395;28;20553;-70
2021/08/13 06:22:47;;;;;;;14.27;7.82;;;;;;;26.62;100.00;-19853.28;5078918;28;20055;-70
2021/08/13 06:25:12;;;;;;;13.90;8.32;;;;;;;25.89;100.00;-19834.84;5079303;28;20026;-69
2021/08/13 06:27:45;;;;;;;15.70;7.78;;;;;;;25.85;99.07;-19833.81;5079324;28;20102;-69
2021/08/13 06:30:12;;;;;;;15.00;7.72;;;;;;;26.44;92.14;-19848.66;5078839;28;20028;-69
2021/08/13 06:32:38;;;;;;;15.23;7.80;;;;;;;25.73;88.64;-19830.59;5079029;28;20389;-70
2021/08/13 06:35:05;;;;;;;15.02;7.47;;;;;;;26.41;95.55;-19847.88;5079187;28;20039;-70
2021/08/13 06:37:31;;;;;;;14.35;7.28;;;;;;;25.50;97.80;-19824.91;5079303;28;20537;-69
2021/08/13 06:39:57;;;;;;;14.50;7.63;;;;;;;25.49;100.00;-19824.53;5079199;28;20024;-70
2021/08/13 06:42:22;;;;;;;13.15;7.20;;;;;;;26.00;97.78;-19837.56;5079128;28;20501;-70
2021/08/13 06:44:48;;;;;;;13.70;7.88;;;;;;;26.02;93.13;-19837.94;5079169;28;20016;-70
2021/08/13 06:47:13;;;;;;;15.88;7.50;;;;;;;26.45;100.00;-19848.91;5078998;28;20427;-70
2021/08/13 06:49:39;;;;;;;14.38;7.78;;;;;;;26.28;96.07;-19844.78;5079279;28;20256;-71
2021/08/13 06:52:07;;;;;;;14.25;7.00;;;;;;;26.59;93.00;-19852.50;5079032;28;20532;-71
2021/08/13 06:54:33;;;;;;;15.50;7.10;;;;;;;27.42;87.46;-19873.50;5070429;28;20137;-71
2021/08/13 06:56:58;;;;;;;14.10;7.53;;;;;;;28.18;82.38;-19892.78;5079347;28;20077;-71
2021/08/13 06:59:24;;;;;;;14.57;7.68;;;;;;;27.85;79.09;-19884.44;5078885;28;20027;-70
2021/08/13 07:01:50;;;;;;;15.23;7.43;;;;;;;27.12;80.40;-19865.91;5079143;28;20024;-71
2021/08/13 07:04:15;;;;;;;14.23;8.02;;;;;;;27.61;82.14;-19878.25;5078542;28;20043;-71
2021/08/13 07:06:41;;;;;;;14.48;7.25;;;;;;;27.78;87.21;-19882.63;5076003;28;20551;-71
2021/08/13 07:09:06;;;;;;;14.05;7.95;;;;;;;27.21;80.95;-19868.22;5078610;28;20023;-71
2021/08/13 07:11:32;;;;;;;14.32;7.32;;;;;;;26.94;87.44;-19861.25;5079106;28;20039;-71
2021/08/13 07:13:57;;;;;;;13.68;7.35;;;;;;;27.22;82.35;-19868.34;5074284;28;20043;-71
2021/08/13 07:16:23;;;;;;;13.25;7.53;;;;;;;27.44;85.91;-19874.16;5075695;28;20055;-70
2021/08/13 07:18:49;;;;;;;13.30;7.43;;;;;;;26.60;84.96;-19852.75;5078441;28;20487;-70
2021/08/13 07:21:15;;;;;;;14.90;8.00;;;;;;;27.82;87.01;-19883.66;5079388;28;20028;-70
2021/08/13 07:23:41;;;;;;;16.08;7.72;;;;;;;26.82;83.73;-19858.44;5078824;28;20138;-69
2021/08/13 07:26:07;;;;;;;19.80;7.45;;;;;;;27.35;84.57;-19871.69;5079896;28;20031;-70
2021/08/13 07:28:33;;;;;;;17.17;7.78;;;;;;;26.97;84.54;-19862.03;5074498;28;20667;-69
2021/08/13 07:30:59;;;;;;;15.85;8.45;;;;;;;27.07;89.51;-19864.63;5079481;28;20028;-69
2021/08/13 07:33:25;;;;;;;16.13;7.82;;;;;;;27.00;81.49;-19862.81;5078931;28;20020;-69
2021/08/13 07:35:52;;;;;;;14.57;7.93;;;;;;;26.20;87.12;-19842.72;5079215;28;20028;-69
2021/08/13 07:38:18;;;;;;;15.48;8.18;;;;;;;27.15;86.00;-19866.69;5078957;28;20024;-68
2021/08/13 07:40:44;;;;;;;21.63;8.02;;;;;;;26.93;89.31;-19861.13;5081810;28;20039;-68
2021/08/13 07:43:10;;;;;;;13.35;7.82;;;;;;;27.48;84.16;-19875.03;5082834;28;20024;-67
2021/08/13 07:45:36;;;;;;;13.90;7.40;;;;;;;27.81;78.26;-19883.41;5082748;28;20032;-67
2021/08/13 07:48:02;;;;;;;14.40;7.32;;;;;;;27.72;82.88;-19881.09;5082970;28;20419;-67
2021/08/13 07:50:28;;;;;;;13.68;7.47;;;;;;;27.07;84.59;-19864.63;5082608;28;20040;-67
2021/08/13 07:52:54;;;;;;;16.35;7.47;;;;;;;27.02;84.12;-19863.34;5082427;28;20107;-68
2021/08/13 07:55:20;;;;;;;12.07;6.50;;;;;;;26.16;86.51;-19841.69;5082091;28;20039;-68
2021/08/13 07:57:47;;;;;;;11.57;6.60;;;;;;;25.56;81.55;-19826.31;5082956;28;20094;-68
2021/08/13 08:00:13;;;;;;;13.88;7.03;;;;;;;25.44;83.93;-19823.34;5082770;28;20644;-68
2021/08/13 08:02:40;;;;;;;15.23;6.78;;;;;;;25.64;81.98;-19828.53;5082932;28;20409;-68
2021/08/13 08:05:08;;;;;;;16.27;7.13;;;;;;;26.18;79.88;-19842.19;5081863;28;20044;-68
2021/08/13 08:07:36;;;;;;;13.93;7.32;;;;;;;26.33;75.28;-19845.81;5064555;28;20133;-69
2021/08/13 08:10:02;;;;;;;13.68;6.53;;;;;;;26.98;76.11;-19862.44;5082089;28;20036;-69
2021/08/13 08:12:29;;;;;;;13.73;7.15;;;;;;;26.33;75.42;-19845.94;5082393;28;20036;-69
2021/08/13 08:14:55;;;;;;;13.45;7.88;;;;;;;25.26;84.87;-19818.72;5063546;28;20063;-68
2021/08/13 08:17:20;;;;;;;12.77;6.72;;;;;;;25.63;89.62;-19828.13;5082265;28;20012;-69
2021/08/13 08:19:47;;;;;;;13.30;6.82;;;;;;;26.28;91.74;-19844.63;5079152;28;20089;-68
2021/08/13 08:22:13;;;;;;;17.05;6.72;;;;;;;25.26;83.08;-19818.84;5081898;28;20115;-68
2021/08/13 08:24:40;;;;;;;15.38;7.13;;;;;;;24.69;88.13;-19804.25;5081645;28;20228;-68
2021/08/13 08:27:06;;;;;;;14.30;8.15;;;;;;;24.79;89.67;-19806.97;5081444;28;20270;-68
2021/08/13 08:29:32;;;;;;;14.68;7.72;;;;;;;25.22;90.65;-19817.81;5081763;28;20549;-68
2021/08/13 08:31:58;;;;;;;14.32;6.88;;;;;;;25.73;82.55;-19830.59;5063541;28;20226;-68
2021/08/13 08:34:24;;;;;;;12.68;6.78;;;;;;;25.62;83.31;-19828.00;5081296;28;20031;-68
2021/08/13 08:36:51;;;;;;;12.05;6.75;;;;;;;25.32;85.15;-19820.38;5081755;28;20126;-67
2021/08/13 08:39:17;;;;;;;13.50;6.45;;;;;;;26.25;88.08;-19844.00;5081606;28;20059;-68
2021/08/13 08:41:44;;;;;;;14.40;6.70;;;;;;;25.79;85.17;-19832.13;5081733;28;20646;-68
2021/08/13 08:44:10;;;;;;;13.65;6.78;;;;;;;26.78;82.16;-19857.41;5081225;28;20020;-68
2021/08/13 08:46:38;;;;;;;13.55;6.90;;;;;;;25.61;79.38;-19827.63;5081268;28;20227;-68
2021/08/13 08:49:04;;;;;;;15.80;7.32;;;;;;;26.54;81.62;-19851.22;5081095;28;20174;-69
2021/08/13 08:51:31;;;;;;;13.13;6.65;;;;;;;26.88;76.77;-19859.84;5080521;28;20028;-68
2021/08/13 08:53:58;;;;;;;14.85;7.50;;;;;;;26.28;78.93;-19844.78;5081217;28;20524;-68
2021/08/13 08:56:26;;;;;;;13.00;6.72;;;;;;;26.20;78.23;-19842.72;5081131;28;20635;-69
2021/08/13 08:58:53;;;;;;;14.10;7.35;;;;;;;26.79;76.80;-19857.53;5080972;28;20486;-68
2021/08/13 09:01:19;;;;;;;13.60;6.57;;;;;;;27.14;77.05;-19866.56;5078247;28;20106;-68
2021/08/13 09:03:46;;;;;;;16.67;6.88;;;;;;;27.41;75.54;-19873.38;5074074;28;20527;-68
2021/08/13 09:06:14;;;;;;;13.73;6.72;;;;;;;26.51;78.09;-19850.56;5080979;28;20613;-68
2021/08/13 09:08:40;;;;;;;16.20;6.45;;;;;;;26.15;78.86;-19841.41;5080374;28;20036;-68
2021/08/13 09:11:06;;;;;;;13.57;7.15;;;;;;;25.53;82.43;-19825.56;5070111;28;20043;-67
2021/08/13 09:13:35;;;;;;;12.10;6.68;;;;;;;25.90;85.60;-19834.97;5077605;28;20472;-67
2021/08/13 09:16:15;;;;;;;13.55;7.30;;;;;;;25.44;84.22;-19823.34;5080875;28;20102;-67
2021/08/13 09:18:53;;;;;;;14.98;6.32;;;;;;;25.19;89.94;-19817.03;5079832;28;20103;-67
2021/08/13 09:21:21;;;;;;;13.80;7.85;;;;;;;24.83;96.21;-19807.84;5080229;28;20054;-67
2021/08/13 09:23:47;;;;;;;14.73;7.53;;;;;;;24.60;100.00;-19801.91;5079931;28;20028;-66
2021/08/13 09:26:20;;;;;;;13.23;6.80;;;;;;;24.54;100.00;-19800.63;5080511;28;20028;-67
2021/08/13 09:29:04;;;;;;;11.57;6.20;;;;;;;24.96;100.00;-19811.22;5079776;28;20050;-67
2021/08/13 09:31:35;;;;;;;14.35;7.22;;;;;;;25.08;100.00;-19814.31;5080303;28;20040;-67
2021/08/13 09:34:10;;;;;;;;;;;;;;;25.06;100.00;-19813.81;5080423;28;20028;-67
2021/08/13 09:36:38;;;;;;;12.07;5.65;;;;;;;24.99;97.81;-19811.88;5066394;28;19943;-67
2021/08/13 09:39:07;;;;;;;11.00;6.00;;;;;;;24.69;97.34;-19804.25;5072388;28;20177;-67
2021/08/13 09:41:48;;;;;;;12.93;6.60;;;;;;;24.84;99.14;-19808.13;5079816;28;20200;-67
2021/08/13 09:44:30;;;;;;;10.93;5.95;;;;;;;25.34;91.12;-19820.78;5076451;28;20067;-67
2021/08/13 09:46:59;;;;;;;11.77;6.13;;;;;;;24.98;94.01;-19811.72;5080174;28;20377;-66
2021/08/13 09:49:25;;;;;;;13.32;6.82;;;;;;;24.62;100.00;-19802.56;5079398;28;20028;-66
2021/08/13 09:51:51;;;;;;;15.35;7.25;;;;;;;24.85;100.00;-19808.38;5080093;28;20024;-67
2021/08/13 09:54:16;;;;;;;13.95;6.55;;;;;;;24.80;100.00;-19807.22;5069520;28;20047;-66
2021/08/13 09:56:42;;;;;;;13.23;7.07;;;;;;;25.55;97.21;-19826.19;5075208;28;20483;-68
2021/08/13 09:59:26;;;;;;;16.60;7.63;;;;;;;25.70;89.81;-19830.06;5076709;28;20313;-68
2021/08/13 10:01:52;;;;;;;15.25;7.40;;;;;;;25.93;89.84;-19835.75;5076979;28;20067;-68
2021/08/13 10:04:30;;;;;;;15.02;7.22;;;;;;;26.74;88.13;-19856.38;5075800;28;20111;-68
2021/08/13 10:06:56;;;;;;;13.45;7.10;;;;;;;26.42;95.67;-19848.25;5077066;28;20486;-68
2021/08/13 10:09:27;;;;;;;14.38;7.00;;;;;;;28.32;84.17;-19896.25;5076272;28;20111;-69
2021/08/13 10:12:02;;;;;;;15.65;7.20;;;;;;;27.61;78.23;-19878.25;5077393;28;20674;-68
2021/08/13 10:14:30;;;;;;;13.52;6.60;;;;;;;27.64;73.60;-19879.03;5076489;28;20372;-69
2021/08/13 10:17:15;;;;;;;12.57;5.90;;;;;;;27.36;77.39;-19872.09;5076823;28;20035;-68
2021/08/13 10:19:45;;;;;;;10.10;4.90;;;;;;;27.76;75.81;-19882.13;5076396;28;20055;-68
2021/08/13 10:22:12;;;;;;;10.07;5.00;;;;;;;28.53;74.51;-19901.66;5077288;28;20189;-69
2021/08/13 10:24:39;;;;;;;10.68;5.50;;;;;;;28.56;70.24;-19902.31;5076837;28;20484;-68
2021/08/13 10:27:07;;;;;;;10.27;5.57;;;;;;;29.01;66.83;-19913.59;5076826;28;20417;-69
2021/08/13 10:29:32;;;;;;;9.18;4.72;;;;;;;27.69;70.97;-19880.31;5076469;28;20184;-68
2021/08/13 10:31:59;;;;;;;10.75;4.90;;;;;;;28.17;73.29;-19892.53;5076756;28;20078;-69
2021/08/13 10:34:25;;;;;;;9.48;5.03;;;;;;;28.09;71.01;-19890.34;5076468;28;20032;-68
2021/08/13 10:36:51;;;;;;;13.60;5.10;;;;;;;28.30;70.21;-19895.75;5076918;28;20529;-68
2021/08/13 10:39:19;;;;;;;11.02;5.30;;;;;;;28.08;67.26;-19890.09;5076233;28;20043;-68
2021/08/13 10:41:48;;;;;;;9.18;4.55;;;;;;;28.09;75.53;-19890.34;5076550;28;20035;-68
2021/08/13 10:44:17;;;;;;;11.48;5.43;;;;;;;28.15;68.62;-19892.03;5075905;28;20258;-68
2021/08/13 10:46:44;;;;;;;10.75;4.75;;;;;;;28.62;71.70;-19903.72;5076633;28;20387;-68
2021/08/13 10:49:12;;;;;;;10.73;5.20;;;;;;;28.92;70.97;-19911.31;5075809;28;20032;-68
2021/08/13 10:51:37;;;;;;;11.50;5.47;;;;;;;28.36;72.14;-19897.16;5076430;28;20035;-68
2021/08/13 10:54:13;;;;;;;9.68;4.93;;;;;;;27.55;76.43;-19876.72;5075754;28;20024;-67
2021/08/13 10:56:44;;;;;;;10.48;5.32;;;;;;;27.41;75.28;-19873.38;5076346;28;20068;-67
2021/08/13 10:59:10;;;;;;;9.57;5.18;;;;;;;27.77;75.59;-19882.38;5076249;28;20138;-68
2021/08/13 11:01:36;;;;;;;9.50;5.28;;;;;;;26.80;80.91;-19857.91;5075962;28;20028;-67
2021/08/13 11:04:11;;;;;;;9.73;5.30;;;;;;;27.10;78.00;-19865.38;5074960;28;20055;-67
2021/08/13 11:06:47;;;;;;;12.15;5.57;;;;;;;26.98;78.01;-19862.44;5076373;28;20031;-67
2021/08/13 11:09:31;;;;;;;11.13;5.43;;;;;;;27.02;74.23;-19863.34;5076338;28;20048;-67
2021/08/13 11:12:16;;;;;;;10.50;4.90;;;;;;;27.33;77.98;-19871.31;5075917;28;20050;-68
2021/08/13 11:14:53;;;;;;;9.60;4.88;;;;;;;27.65;73.99;-19879.28;5076732;28;20039;-67
2021/08/13 11:17:39;;;;;;;9.02;5.05;;;;;;;27.84;72.98;-19884.19;5080305;28;20027;-67